Time;durP1;ratioP1;P1;durP2;ratioP2;P2;SDS_P1;SDS_P2;PMS_P1;PMS_P2;Temp;Humidity;BMP_temperature;BMP_pressure;BME280_temperature;BME280_humidity;BME280_pressure;Samples;Min_cycle;Max_cycle;Signal;HPM_P1;HPM_P2
2021/12/04 00:01:49;;;;;;;3.65;1.30;;;-2.90;99.90;;;;;;5091980;28;20020;-69
2021/12/04 00:04:21;;;;;;;3.90;1.20;;;-3.00;99.90;;;;;;5097634;28;20107;-69
2021/12/04 00:06:49;;;;;;;4.65;1.17;;;-3.00;99.90;;;;;;5098574;28;20036;-69
2021/12/04 00:09:17;;;;;;;1.48;1.27;;;-3.00;99.90;;;;;;5098588;28;20036;-69
2021/12/04 00:11:54;;;;;;;2.80;1.20;;;-3.10;99.90;;;;;;5098900;28;20073;-69
2021/12/04 00:14:19;;;;;;;3.40;1.25;;;-3.10;99.90;;;;;;5098569;28;20036;-70
2021/12/04 00:16:46;;;;;;;1.85;1.15;;;-3.10;99.90;;;;;;5098622;28;20027;-71
2021/12/04 00:19:12;;;;;;;3.80;1.30;;;-3.10;99.90;;;;;;5098357;28;20565;-71
2021/12/04 00:21:38;;;;;;;1.75;1.30;;;-3.10;99.90;;;;;;5098474;28;20394;-71
2021/12/04 00:24:04;;;;;;;2.15;1.55;;;-3.20;99.90;;;;;;5098626;28;20074;-72
2021/12/04 00:26:30;;;;;;;2.35;1.40;;;-3.20;99.90;;;;;;5098660;28;20028;-72
2021/12/04 00:28:55;;;;;;;4.88;1.50;;;-3.20;99.90;;;;;;5098635;28;20031;-71
2021/12/04 00:31:21;;;;;;;2.10;1.00;;;-3.20;99.90;;;;;;5098478;28;20417;-72
2021/12/04 00:33:48;;;;;;;5.72;1.25;;;-3.30;99.90;;;;;;5097176;28;20123;-71
2021/12/04 00:49:58;;;;;;;5.50;1.20;;;-3.30;99.90;;;;;;5098344;28;20498;-72
2021/12/04 00:52:24;;;;;;;2.45;1.50;;;-3.30;99.90;;;;;;5098577;28;20047;-72
2021/12/04 00:54:50;;;;;;;2.58;1.38;;;-3.30;99.90;;;;;;5098410;28;20467;-71
2021/12/04 00:57:16;;;;;;;3.03;1.30;;;-3.30;99.90;;;;;;5098407;28;20024;-71
2021/12/04 00:59:42;;;;;;;3.70;1.17;;;-3.30;99.90;;;;;;5098209;28;20051;-71
2021/12/04 01:02:08;;;;;;;1.45;1.33;;;-3.30;99.90;;;;;;5098204;28;20106;-70
2021/12/04 01:04:34;;;;;;;2.55;1.27;;;-3.30;99.90;;;;;;5098322;28;20360;-71
2021/12/04 01:07:00;;;;;;;2.42;1.30;;;-3.30;99.90;;;;;;5096624;28;20031;-71
2021/12/04 01:09:26;;;;;;;4.40;1.30;;;-3.30;99.90;;;;;;5098178;28;20039;-71
2021/12/04 01:11:55;;;;;;;2.08;1.30;;;-3.40;99.90;;;;;;5097794;28;20503;-70
2021/12/04 01:14:26;;;;;;;9.63;1.60;;;-3.40;99.90;;;;;;5096429;28;20038;-70
2021/12/04 01:16:52;;;;;;;2.45;1.42;;;-3.40;99.90;;;;;;5094790;28;20032;-71
2021/12/04 01:19:19;;;;;;;3.92;1.50;;;-3.40;99.90;;;;;;5093420;28;20024;-71
2021/12/04 01:21:45;;;;;;;1.35;1.25;;;-3.40;99.90;;;;;;5094890;28;20042;-71
2021/12/04 01:24:13;;;;;;;2.78;1.42;;;-3.40;99.90;;;;;;5094516;28;20107;-71
2021/12/04 01:26:39;;;;;;;2.67;1.50;;;-3.40;99.90;;;;;;5094650;28;20035;-73
2021/12/04 01:29:05;;;;;;;3.25;1.40;;;-3.40;99.90;;;;;;5094424;28;20040;-74
2021/12/04 01:31:31;;;;;;;5.70;1.42;;;-3.40;99.90;;;;;;5094561;28;20533;-71
2021/12/04 01:33:56;;;;;;;3.72;1.40;;;-3.40;99.90;;;;;;5094359;28;20064;-71
2021/12/04 01:36:23;;;;;;;1.25;1.15;;;-3.40;99.90;;;;;;5094383;28;20016;-71
2021/12/04 01:38:50;;;;;;;1.80;1.40;;;-3.50;99.90;;;;;;5094555;28;20483;-71
2021/12/04 01:41:16;;;;;;;3.00;1.52;;;-3.50;99.90;;;;;;5094312;28;20024;-71
2021/12/04 01:43:42;;;;;;;4.53;1.73;;;-3.40;99.90;;;;;;5094315;28;20028;-71
2021/12/04 01:46:08;;;;;;;2.58;1.20;;;-3.50;99.90;;;;;;5094298;28;20464;-71
2021/12/04 01:48:34;;;;;;;1.88;1.20;;;-3.50;99.90;;;;;;5094108;28;20081;-72
2021/12/04 01:51:00;;;;;;;4.65;1.48;;;-3.50;99.90;;;;;;5094242;28;20099;-71
2021/12/04 01:53:26;;;;;;;2.05;1.30;;;-3.50;99.90;;;;;;5094254;28;20112;-71
2021/12/04 01:55:54;;;;;;;1.33;1.20;;;-3.50;99.90;;;;;;5094366;28;20036;-71
2021/12/04 01:58:21;;;;;;;1.55;1.20;;;-3.50;99.90;;;;;;5093880;28;20076;-71
2021/12/04 02:00:48;;;;;;;2.55;1.38;;;-3.50;99.90;;;;;;5093923;28;20139;-72
2021/12/04 02:03:14;;;;;;;1.63;1.13;;;-3.50;99.90;;;;;;5094101;28;20058;-73
2021/12/04 02:05:42;;;;;;;1.75;1.33;;;-3.50;99.90;;;;;;5093891;28;20035;-73
2021/12/04 02:08:11;;;;;;;1.20;1.10;;;-3.50;99.90;;;;;;5093606;28;20039;-71
2021/12/04 02:10:37;;;;;;;2.25;1.38;;;-3.50;99.90;;;;;;5093907;28;20044;-71
2021/12/04 02:13:03;;;;;;;2.17;1.25;;;-3.60;99.90;;;;;;5093569;28;20059;-71
2021/12/04 02:15:29;;;;;;;3.08;1.42;;;-3.50;99.90;;;;;;5093817;28;20067;-70
2021/12/04 02:17:56;;;;;;;2.85;1.20;;;-3.60;99.90;;;;;;5093695;28;20428;-71
2021/12/04 02:20:24;;;;;;;1.88;1.25;;;-3.60;99.90;;;;;;5093914;28;20024;-71
2021/12/04 02:22:51;;;;;;;2.47;0.98;;;-3.60;99.90;;;;;;5093640;28;20509;-74
2021/12/04 02:54:20;;;;;;;3.85;1.33;;;-3.60;99.90;;;;;;5092688;28;20063;-70
2021/12/04 02:56:48;;;;;;;2.05;1.25;;;-3.70;99.90;;;;;;5092995;28;20070;-68
2021/12/04 02:59:14;;;;;;;2.13;1.27;;;-3.70;99.90;;;;;;5092503;28;20048;-70
2021/12/04 03:01:41;;;;;;;2.08;1.23;;;-3.70;99.90;;;;;;5092824;28;20036;-70
2021/12/04 03:04:12;;;;;;;3.80;1.13;;;-3.70;99.90;;;;;;5093028;28;20024;-70
2021/12/04 03:06:45;;;;;;;5.13;1.30;;;-3.70;99.90;;;;;;5092678;28;20036;-70
2021/12/04 03:09:11;;;;;;;3.90;1.30;;;-3.70;99.90;;;;;;5092781;28;20059;-70
2021/12/04 03:11:37;;;;;;;1.23;0.93;;;-3.70;99.90;;;;;;5092713;28;20479;-70
2021/12/04 03:14:04;;;;;;;1.92;1.10;;;-3.70;99.90;;;;;;5092558;28;20038;-71
2021/12/04 03:16:30;;;;;;;1.20;1.20;;;-3.70;99.90;;;;;;5092766;28;20055;-71
2021/12/04 03:18:56;;;;;;;2.80;1.20;;;-3.70;99.90;;;;;;5092490;28;20031;-70
2021/12/04 03:21:22;;;;;;;3.25;1.20;;;-3.70;99.90;;;;;;5092726;28;20020;-70
2021/12/04 03:24:03;;;;;;;4.22;1.30;;;-3.70;99.90;;;;;;5092435;28;20064;-70
2021/12/04 03:26:29;;;;;;;3.38;1.50;;;-3.70;99.90;;;;;;5092533;28;20057;-70
2021/12/04 03:28:56;;;;;;;3.58;1.60;;;-3.70;99.90;;;;;;5092369;28;20479;-70
2021/12/04 03:42:23;;;;;;;3.78;1.15;;;-3.70;99.90;;;;;;5092298;28;20031;-70
2021/12/04 03:44:50;;;;;;;5.20;1.15;;;-3.70;99.90;;;;;;5092285;28;20073;-70
2021/12/04 03:47:16;;;;;;;5.78;1.27;;;-3.70;99.90;;;;;;5092049;28;20081;-70
2021/12/04 03:49:42;;;;;;;4.43;1.10;;;-3.70;99.90;;;;;;5092134;28;20537;-70
2021/12/04 03:52:09;;;;;;;1.30;1.17;;;-3.70;99.90;;;;;;5092152;28;20028;-71
2021/12/04 03:54:35;;;;;;;4.95;1.35;;;-3.70;99.90;;;;;;5091867;28;20479;-71
2021/12/04 03:57:04;;;;;;;2.85;1.23;;;-3.80;99.90;;;;;;5092369;28;20024;-73
2021/12/04 03:59:37;;;;;;;1.95;1.10;;;-3.70;99.90;;;;;;5091778;28;20044;-74
2021/12/04 04:02:06;;;;;;;1.60;1.20;;;-3.70;99.90;;;;;;5091961;28;20476;-74
2021/12/04 04:04:32;;;;;;;2.35;1.40;;;-3.70;99.90;;;;;;5091811;28;20048;-74
2021/12/04 04:06:59;;;;;;;2.75;1.23;;;-3.70;99.90;;;;;;5091856;28;20066;-75
2021/12/04 04:09:26;;;;;;;2.40;1.63;;;-3.70;99.90;;;;;;5092048;28;20028;-74
2021/12/04 04:11:52;;;;;;;2.13;1.20;;;-3.80;99.90;;;;;;5091911;28;20020;-74
2021/12/04 04:14:17;;;;;;;4.93;1.40;;;-3.80;99.90;;;;;;5092034;28;20101;-74
2021/12/04 04:16:43;;;;;;;3.00;1.30;;;-3.80;99.90;;;;;;5091852;28;20020;-72
2021/12/04 04:19:10;;;;;;;9.65;1.23;;;-3.80;99.90;;;;;;5091888;28;20047;-71
2021/12/04 04:21:41;;;;;;;2.08;1.40;;;-3.80;99.90;;;;;;5092014;28;20032;-68
2021/12/04 04:24:15;;;;;;;1.60;1.38;;;-3.80;99.90;;;;;;5091807;28;20027;-70
2021/12/04 04:26:43;;;;;;;6.22;1.83;;;-3.80;99.90;;;;;;5092051;28;20024;-69
2021/12/04 04:29:10;;;;;;;2.40;1.27;;;-3.80;99.90;;;;;;5091779;28;20035;-69
2021/12/04 04:31:45;;;;;;;2.17;1.15;;;-3.80;99.90;;;;;;5091622;28;20099;-69
2021/12/04 04:34:11;;;;;;;3.83;1.40;;;-3.80;99.90;;;;;;5092011;28;20028;-69
2021/12/04 05:13:39;;;;;;;1.85;1.15;;;-3.80;99.90;;;;;;5095218;28;20032;-71
2021/12/04 05:18:40;;;;;;;4.47;1.40;;;-3.80;99.90;;;;;;5095160;28;20028;-70
2021/12/04 05:21:08;;;;;;;2.45;1.48;;;-3.90;99.60;;;;;;5094850;28;20415;-71
2021/12/04 05:23:46;;;;;;;2.85;1.70;;;-3.80;99.80;;;;;;5094660;28;20039;-69
2021/12/04 05:26:16;;;;;;;5.78;3.08;;;-3.80;99.90;;;;;;5095121;28;20042;-69
2021/12/04 05:28:43;;;;;;;1.50;1.40;;;-3.80;99.90;;;;;;5094536;28;20050;-70
2021/12/04 05:31:08;;;;;;;3.63;1.98;;;-3.80;99.90;;;;;;5093531;28;20507;-68
2021/12/04 05:33:35;;;;;;;1.38;1.27;;;-3.80;99.90;;;;;;5094482;28;20029;-71
2021/12/04 05:36:00;;;;;;;4.55;1.40;;;-3.90;99.90;;;;;;5094534;28;20479;-69
2021/12/04 05:38:26;;;;;;;2.55;1.40;;;-3.80;99.90;;;;;;5094401;28;20073;-67
2021/12/04 05:40:52;;;;;;;1.85;1.30;;;-3.80;99.90;;;;;;5094720;28;20055;-66
2021/12/04 05:43:22;;;;;;;1.83;1.10;;;-3.60;99.90;;;;;;5094347;28;20471;-66
2021/12/04 05:45:54;;;;;;;1.77;1.30;;;-3.60;99.90;;;;;;5093987;28;20060;-66
2021/12/04 05:48:31;;;;;;;3.00;1.30;;;-3.70;99.70;;;;;;5093647;28;20101;-65
2021/12/04 05:53:29;;;;;;;2.83;1.40;;;-3.80;99.40;;;;;;5111237;28;20028;-66
2021/12/04 05:55:56;;;;;;;2.40;1.20;;;-3.80;99.30;;;;;;5096667;28;20108;-65
2021/12/04 05:58:27;;;;;;;2.08;1.35;;;-3.80;99.10;;;;;;5095932;28;20055;-65
2021/12/04 06:00:54;;;;;;;1.33;1.20;;;-3.90;98.70;;;;;;5093074;28;20059;-65
2021/12/04 06:03:20;;;;;;;1.40;1.30;;;-3.90;98.20;;;;;;5094771;28;20020;-65
2021/12/04 06:05:46;;;;;;;2.80;1.40;;;-3.90;98.30;;;;;;5093466;28;20038;-65
2021/12/04 06:08:12;;;;;;;1.52;1.10;;;-3.90;98.00;;;;;;5096335;28;20395;-65
2021/12/04 06:10:39;;;;;;;1.63;1.27;;;-3.90;97.00;;;;;;5093387;28;20535;-66
2021/12/04 06:13:05;;;;;;;1.20;1.10;;;-3.90;97.10;;;;;;5093319;28;20031;-65
2021/12/04 06:15:31;;;;;;;2.55;1.23;;;-3.90;96.70;;;;;;5093551;28;20043;-65
2021/12/04 06:17:57;;;;;;;1.70;1.30;;;-4.00;96.60;;;;;;5093349;28;20028;-65
2021/12/04 06:23:09;;;;;;;3.15;1.33;;;-3.90;96.10;;;;;;5101813;28;20042;-66
2021/12/04 06:25:35;;;;;;;3.40;1.20;;;-4.00;95.10;;;;;;5095021;28;20020;-66
2021/12/04 06:28:01;;;;;;;2.40;1.23;;;-4.00;95.30;;;;;;5093641;28;20047;-64
2021/12/04 06:30:27;;;;;;;2.60;1.00;;;-4.00;94.60;;;;;;5093294;28;20031;-64
2021/12/04 06:32:54;;;;;;;1.25;1.13;;;-4.00;94.60;;;;;;5093473;28;20111;-64
2021/12/04 06:35:23;;;;;;;1.92;1.05;;;-4.00;93.90;;;;;;5093782;28;20104;-64
2021/12/04 06:37:50;;;;;;;2.28;1.13;;;-3.80;99.90;;;;;;5093461;28;20472;-64
2021/12/04 06:40:18;;;;;;;0.80;0.80;;;-3.80;94.80;;;;;;5093511;28;20652;-64
2021/12/04 06:42:45;;;;;;;2.42;1.20;;;-3.90;93.60;;;;;;5093066;28;20024;-64
2021/12/04 06:45:11;;;;;;;2.85;1.30;;;-4.00;92.90;;;;;;5093284;28;20376;-64
2021/12/04 06:47:40;;;;;;;2.50;1.20;;;-4.00;93.60;;;;;;5093180;28;20028;-64
2021/12/04 06:50:13;;;;;;;1.00;1.00;;;-4.10;92.70;;;;;;5093144;28;20043;-64
2021/12/04 06:52:43;;;;;;;2.85;1.02;;;-4.10;92.60;;;;;;5093013;28;20024;-64
2021/12/04 06:55:09;;;;;;;2.03;1.10;;;-4.10;91.60;;;;;;5093061;28;20024;-64
2021/12/04 06:57:38;;;;;;;2.13;1.38;;;-3.80;99.90;;;;;;5092940;28;20448;-64
2021/12/04 07:00:07;;;;;;;2.38;1.02;;;-3.70;96.60;;;;;;5092863;28;20044;-66
2021/12/04 07:02:32;;;;;;;1.33;1.15;;;-3.90;92.70;;;;;;5092728;28;20031;-64
2021/12/04 07:04:58;;;;;;;2.72;1.30;;;-4.00;93.00;;;;;;5092889;28;20028;-64
2021/12/04 07:07:24;;;;;;;1.58;1.02;;;-4.00;92.50;;;;;;5092662;28;20391;-64
2021/12/04 07:09:50;;;;;;;5.45;1.27;;;-4.10;92.10;;;;;;5092737;28;20016;-64
2021/12/04 07:12:15;;;;;;;3.13;1.00;;;-3.80;95.60;;;;;;5092005;28;20036;-64
2021/12/04 07:14:41;;;;;;;0.98;0.90;;;-3.50;98.10;;;;;;5091847;28;20480;-63
2021/12/04 07:17:09;;;;;;;1.33;1.23;;;-3.70;93.90;;;;;;5093674;28;20036;-66
2021/12/04 07:19:35;;;;;;;2.47;1.20;;;-3.90;93.30;;;;;;5092118;28;20051;-66
2021/12/04 07:22:02;;;;;;;2.55;1.40;;;-4.00;92.50;;;;;;5092328;28;20455;-65
2021/12/04 07:24:31;;;;;;;1.13;1.02;;;-4.10;92.50;;;;;;5103420;28;20028;-65
2021/12/04 07:26:57;;;;;;;3.10;1.50;;;-4.20;92.30;;;;;;5112747;28;20030;-65
2021/12/04 07:29:22;;;;;;;4.38;1.10;;;-4.30;93.00;;;;;;5113022;28;20028;-65
2021/12/04 07:31:48;;;;;;;1.33;1.23;;;-4.30;92.90;;;;;;5104544;28;20482;-65
2021/12/04 07:34:14;;;;;;;4.63;1.08;;;-4.30;93.30;;;;;;5092611;28;20529;-65
2021/12/04 07:36:40;;;;;;;4.13;1.20;;;-4.30;93.40;;;;;;5092175;28;20027;-65
2021/12/04 07:39:06;;;;;;;2.45;0.98;;;-4.30;93.60;;;;;;5092281;28;20533;-65
2021/12/04 07:41:33;;;;;;;4.57;1.42;;;-4.40;93.90;;;;;;5092079;28;20032;-65
2021/12/04 07:43:59;;;;;;;5.18;1.25;;;-4.30;97.10;;;;;;5092299;28;20032;-63
2021/12/04 07:46:25;;;;;;;2.53;1.38;;;-3.60;99.90;;;;;;5108743;28;20016;-63
2021/12/04 07:48:51;;;;;;;2.08;1.10;;;-3.80;97.50;;;;;;5112668;28;20038;-63
2021/12/04 07:51:17;;;;;;;1.80;1.13;;;-3.90;96.80;;;;;;5112584;28;20069;-65
2021/12/04 07:53:46;;;;;;;2.47;1.30;;;-4.10;96.20;;;;;;5112625;28;20093;-65
2021/12/04 07:56:13;;;;;;;2.03;1.30;;;-4.20;95.60;;;;;;5111225;28;20061;-66
2021/12/04 07:58:39;;;;;;;1.92;1.33;;;-4.30;95.00;;;;;;5093229;28;20024;-66
2021/12/04 08:01:05;;;;;;;1.88;1.20;;;-4.30;94.90;;;;;;5091748;28;20055;-66
2021/12/04 08:03:30;;;;;;;1.35;1.13;;;-4.40;95.00;;;;;;5091949;28;20024;-65
2021/12/04 08:05:56;;;;;;;5.15;1.45;;;-4.40;95.20;;;;;;5092091;28;20081;-66
2021/12/04 08:08:22;;;;;;;1.50;1.40;;;-4.40;95.70;;;;;;5092209;28;20140;-65
2021/12/04 08:10:48;;;;;;;2.13;1.23;;;-4.40;95.50;;;;;;5091885;28;20101;-66
2021/12/04 08:13:13;;;;;;;4.05;1.20;;;-4.40;95.10;;;;;;5092153;28;20055;-66
2021/12/04 08:15:39;;;;;;;2.03;1.27;;;-4.40;95.50;;;;;;5091059;28;20447;-66
2021/12/04 08:18:07;;;;;;;2.67;1.58;;;-4.50;95.40;;;;;;5091613;28;20020;-65
2021/12/04 08:20:33;;;;;;;1.48;1.17;;;-4.40;95.70;;;;;;5091537;28;20024;-64
2021/12/04 08:22:59;;;;;;;3.58;1.15;;;-4.40;96.30;;;;;;5092163;28;20031;-64
2021/12/04 08:25:25;;;;;;;1.77;1.20;;;-4.40;96.60;;;;;;5095102;28;20023;-64
2021/12/04 08:27:52;;;;;;;2.20;1.20;;;-4.40;96.70;;;;;;5095893;28;20040;-64
2021/12/04 08:30:22;;;;;;;2.60;1.40;;;-4.40;97.10;;;;;;5096030;28;20064;-64
2021/12/04 08:32:49;;;;;;;1.85;1.10;;;-4.40;97.70;;;;;;5095385;28;20020;-64
2021/12/04 08:35:18;;;;;;;6.05;1.40;;;-4.40;97.90;;;;;;5095624;28;20387;-64
2021/12/04 08:37:45;;;;;;;3.03;1.40;;;-4.40;98.10;;;;;;5095502;28;20024;-64
2021/12/04 08:40:14;;;;;;;2.47;1.02;;;-4.40;98.20;;;;;;5095132;28;20498;-66
2021/12/04 08:42:42;;;;;;;1.88;1.27;;;-4.40;98.20;;;;;;5097425;28;20028;-63
2021/12/04 08:45:08;;;;;;;1.83;1.10;;;-4.30;98.40;;;;;;5098204;28;20130;-64
2021/12/04 08:47:35;;;;;;;1.77;1.30;;;-4.30;98.10;;;;;;5095386;28;20441;-63
2021/12/04 08:50:00;;;;;;;7.25;1.60;;;-4.30;98.40;;;;;;5097874;28;20047;-63
2021/12/04 08:52:26;;;;;;;6.03;1.42;;;-4.30;98.40;;;;;;5094717;28;20097;-64
2021/12/04 08:54:52;;;;;;;1.38;1.10;;;-3.70;99.90;;;;;;5096437;28;20148;-63
2021/12/04 08:57:18;;;;;;;3.90;1.10;;;-3.20;99.90;;;;;;5096853;28;20034;-63
2021/12/04 08:59:47;;;;;;;1.65;1.25;;;-3.20;99.90;;;;;;5094726;28;20059;-63
2021/12/04 09:02:13;;;;;;;2.42;1.10;;;-3.50;98.60;;;;;;5095209;28;20054;-63
2021/12/04 09:04:40;;;;;;;4.65;1.30;;;-3.70;98.00;;;;;;5094796;28;20113;-63
2021/12/04 09:07:07;;;;;;;1.35;1.23;;;-3.80;98.10;;;;;;5097900;28;20044;-63
2021/12/04 09:09:33;;;;;;;7.85;1.60;;;-3.90;97.80;;;;;;5095252;28;20028;-63
2021/12/04 09:12:04;;;;;;;2.78;1.30;;;-4.00;97.60;;;;;;5095037;28;20024;-64
2021/12/04 09:14:34;;;;;;;2.95;1.10;;;-3.60;99.90;;;;;;5095097;28;20104;-65
2021/12/04 09:17:02;;;;;;;2.55;1.25;;;-1.50;99.90;;;;;;5094969;28;20575;-64
2021/12/04 09:19:29;;;;;;;3.70;1.60;;;0.10;93.70;;;;;;5094715;28;20036;-65
2021/12/04 09:21:57;;;;;;;4.13;1.15;;;-0.40;99.90;;;;;;5094887;28;20054;-65
2021/12/04 09:24:29;;;;;;;1.38;1.10;;;-1.00;92.20;;;;;;5094869;28;20020;-64
2021/12/04 10:04:17;;;;;;;4.03;1.48;;;-3.60;97.10;;;;;;5114109;28;20605;-64
2021/12/04 10:15:52;;;;;;;3.25;1.55;;;-3.70;97.10;;;;;;5114123;28;20092;-64
2021/12/04 10:20:36;;;;;;;1.83;1.38;;;-3.70;96.50;;;;;;5107009;28;20472;-64
2021/12/04 10:33:47;;;;;;;3.95;1.40;;;-3.70;97.10;;;;;;5093578;28;20407;-65
2021/12/04 10:36:30;;;;;;;2.30;1.25;;;-3.70;96.90;;;;;;5093386;28;20020;-65
2021/12/04 10:38:57;;;;;;;4.55;1.40;;;-3.80;97.20;;;;;;5093299;28;20035;-64
2021/12/04 10:41:35;;;;;;;3.85;1.50;;;-3.70;97.50;;;;;;5093335;28;20102;-65
2021/12/04 10:44:15;;;;;;;4.75;1.40;;;-3.70;97.40;;;;;;5093593;28;20020;-63
2021/12/04 10:47:05;;;;;;;1.35;1.23;;;-3.70;97.30;;;;;;5093215;28;20031;-63
2021/12/04 10:49:52;;;;;;;2.45;1.55;;;-3.70;96.90;;;;;;5093332;28;20060;-62
2021/12/04 10:55:25;;;;;;;5.47;1.27;;;-3.80;97.00;;;;;;5094164;28;20031;-63
2021/12/04 11:01:02;;;;;;;4.13;1.63;;;-3.70;97.20;;;;;;5092492;28;20043;-62
2021/12/04 11:22:24;;;;;;;1.38;1.27;;;-3.80;97.40;;;;;;5112886;28;20034;-63
2021/12/04 11:44:06;;;;;;;4.43;1.90;;;-3.80;98.50;;;;;;5092140;28;20031;-63
2021/12/04 11:47:07;;;;;;;2.28;1.30;;;-3.80;98.70;;;;;;5092425;28;20452;-63
2021/12/04 11:49:32;;;;;;;4.15;1.55;;;-3.80;99.00;;;;;;5098225;28;20093;-63
2021/12/04 11:52:14;;;;;;;2.88;1.23;;;-3.80;99.40;;;;;;5112325;28;20435;-64
2021/12/04 11:54:57;;;;;;;5.65;1.50;;;-3.80;99.60;;;;;;5107902;28;20016;-64
2021/12/04 11:57:29;;;;;;;3.05;1.50;;;-3.90;99.90;;;;;;5091908;28;20027;-63
2021/12/04 12:00:06;;;;;;;2.20;1.42;;;-3.60;99.90;;;;;;5090668;28;20135;-63
2021/12/04 12:02:33;;;;;;;5.97;1.85;;;-3.30;99.90;;;;;;5092269;28;20032;-63
2021/12/04 12:04:58;;;;;;;2.40;1.50;;;-3.40;99.90;;;;;;5091719;28;20164;-64
2021/12/04 12:07:30;;;;;;;2.40;1.35;;;-3.50;99.90;;;;;;5092221;28;20042;-67
2021/12/04 12:10:13;;;;;;;5.93;1.95;;;-3.60;99.90;;;;;;5091627;28;20035;-67
2021/12/04 12:12:42;;;;;;;3.90;1.88;;;-3.70;99.90;;;;;;5108752;28;20090;-64
2021/12/04 12:15:31;;;;;;;1.70;1.48;;;-3.70;99.90;;;;;;5105372;28;20511;-64
2021/12/04 12:18:13;;;;;;;5.25;1.98;;;-3.80;99.90;;;;;;5092059;28;20369;-63
2021/12/04 12:20:43;;;;;;;5.72;1.92;;;-3.80;99.90;;;;;;5092204;28;20112;-63
2021/12/04 12:23:11;;;;;;;;;;;-3.80;99.90;;;;;;5092394;28;20039;-64
2021/12/04 12:33:45;;;;;;;2.35;1.40;;;-3.80;99.90;;;;;;5091654;28;20109;-63
2021/12/04 12:36:19;;;;;;;5.20;1.55;;;-3.80;99.90;;;;;;5091659;28;20021;-65
2021/12/04 12:38:52;;;;;;;3.78;1.70;;;-3.80;99.90;;;;;;5091839;28;20028;-65
2021/12/04 12:41:41;;;;;;;5.90;1.60;;;-3.80;99.90;;;;;;5091585;28;20054;-64
2021/12/04 12:44:13;;;;;;;6.25;1.52;;;-3.90;99.90;;;;;;5091858;28;20376;-65
2021/12/04 12:46:39;;;;;;;2.83;1.30;;;-3.80;99.90;;;;;;5091607;28;20028;-65
2021/12/04 12:49:26;;;;;;;1.88;1.40;;;-3.80;99.90;;;;;;5091679;28;20035;-65
2021/12/04 12:52:00;;;;;;;6.35;1.60;;;-3.80;99.90;;;;;;5083858;28;20514;-63
2021/12/04 12:54:34;;;;;;;2.28;1.40;;;-3.90;99.90;;;;;;5091550;28;20044;-64
2021/12/04 12:57:14;;;;;;;4.78;1.50;;;-3.90;99.90;;;;;;5090217;28;20053;-63
2021/12/04 13:14:20;;;;;;;4.93;1.45;;;-3.50;99.90;;;;;;5094929;28;20529;-63
2021/12/04 13:16:55;;;;;;;4.05;1.40;;;-3.60;99.90;;;;;;5095019;28;20028;-63
2021/12/04 13:19:23;;;;;;;1.98;1.23;;;-3.70;99.90;;;;;;5094951;28;20012;-63
2021/12/04 13:21:52;;;;;;;4.13;1.88;;;-3.70;99.90;;;;;;5094771;28;20035;-63
2021/12/04 13:24:22;;;;;;;1.90;1.50;;;-3.70;99.90;;;;;;5094794;28;20103;-63
2021/12/04 13:26:52;;;;;;;2.10;1.40;;;-3.70;99.90;;;;;;5094686;28;20099;-63
2021/12/04 13:29:21;;;;;;;3.40;1.90;;;-3.70;99.90;;;;;;5094645;28;20113;-65
2021/12/04 13:31:47;;;;;;;2.55;1.60;;;-3.70;99.90;;;;;;5094754;28;20028;-64
2021/12/04 13:34:21;;;;;;;3.85;1.75;;;-3.50;99.90;;;;;;5098256;28;20054;-65
2021/12/04 13:36:47;;;;;;;1.88;1.45;;;-3.50;99.90;;;;;;5103367;28;20104;-63
2021/12/04 13:39:16;;;;;;;2.67;1.60;;;-3.60;99.90;;;;;;5094425;28;20103;-63
2021/12/04 13:41:44;;;;;;;3.15;1.60;;;-3.60;99.90;;;;;;5094230;28;20070;-65
2021/12/04 13:44:12;;;;;;;3.50;1.60;;;-3.70;99.90;;;;;;5094558;28;20659;-63
2021/12/04 13:46:45;;;;;;;4.40;1.40;;;-3.60;99.90;;;;;;5094410;28;20051;-63
2021/12/04 13:49:13;;;;;;;2.95;1.70;;;-3.70;99.90;;;;;;5094606;28;20036;-64
2021/12/04 13:51:40;;;;;;;5.57;1.33;;;-3.70;99.90;;;;;;5094255;28;20024;-65
2021/12/04 13:54:07;;;;;;;3.90;1.58;;;-3.70;99.90;;;;;;5094259;28;20662;-65
2021/12/04 13:56:33;;;;;;;4.05;1.60;;;-3.60;99.90;;;;;;5094370;28;20028;-64
2021/12/04 13:59:02;;;;;;;1.77;1.50;;;-3.60;99.90;;;;;;5093926;28;20383;-64
2021/12/04 14:01:30;;;;;;;4.68;1.60;;;-3.60;99.90;;;;;;5093921;28;20032;-64
2021/12/04 14:04:00;;;;;;;2.75;1.50;;;-3.60;99.90;;;;;;5093951;28;20035;-64
2021/12/04 14:06:27;;;;;;;2.67;1.50;;;-3.60;99.90;;;;;;5094032;28;20082;-64
2021/12/04 14:09:04;;;;;;;2.42;1.70;;;-3.70;99.90;;;;;;5093695;28;20172;-64
2021/12/04 14:11:32;;;;;;;13.45;2.10;;;-3.70;99.90;;;;;;5094189;28;20032;-64
2021/12/04 14:13:59;;;;;;;3.58;1.80;;;-3.70;99.90;;;;;;5093524;28;20039;-64
2021/12/04 14:16:26;;;;;;;5.35;2.10;;;-3.70;99.90;;;;;;5112801;28;20024;-64
2021/12/04 14:18:52;;;;;;;3.08;1.70;;;-3.70;99.90;;;;;;5113394;28;20019;-65
2021/12/04 14:21:18;;;;;;;3.78;1.80;;;-3.70;99.90;;;;;;5093675;28;20051;-64
2021/12/04 14:23:48;;;;;;;10.73;1.80;;;-3.70;99.90;;;;;;5101466;28;20518;-64
2021/12/04 14:26:15;;;;;;;4.65;1.73;;;-3.80;99.90;;;;;;5104841;28;20056;-64
2021/12/04 14:28:43;;;;;;;7.70;1.77;;;-3.70;99.90;;;;;;5114191;28;20083;-64
2021/12/04 14:31:11;;;;;;;2.40;1.50;;;-3.70;99.90;;;;;;5113743;28;20027;-64
2021/12/04 14:33:39;;;;;;;3.38;1.50;;;-3.70;99.90;;;;;;5114198;28;20111;-64
2021/12/04 14:36:05;;;;;;;1.60;1.40;;;-3.80;99.90;;;;;;5113529;28;20028;-63
2021/12/04 14:38:31;;;;;;;1.35;1.25;;;-3.80;99.90;;;;;;5114065;28;20023;-63
2021/12/04 14:41:05;;;;;;;3.40;1.75;;;-3.80;99.90;;;;;;5113437;28;20035;-63
2021/12/04 14:43:35;;;;;;;2.65;1.73;;;-3.80;99.90;;;;;;5113645;28;20128;-63
2021/12/04 14:46:02;;;;;;;;;;;-3.80;99.90;;;;;;5110509;28;20513;-64
2021/12/04 14:48:36;;;;;;;3.83;1.42;;;-3.80;99.90;;;;;;5113719;28;19984;-63
2021/12/04 14:51:12;;;;;;;4.43;1.65;;;-3.80;99.90;;;;;;5113145;28;20036;-63
2021/12/04 14:53:53;;;;;;;6.10;1.55;;;-3.80;99.90;;;;;;5113600;28;20030;-63
2021/12/04 14:56:25;;;;;;;2.15;1.45;;;-3.80;99.90;;;;;;5112435;28;20027;-63
2021/12/04 14:58:51;;;;;;;2.00;1.52;;;-3.80;99.90;;;;;;5106353;28;20032;-64
2021/12/04 15:01:20;;;;;;;2.88;1.42;;;-3.80;99.90;;;;;;5101896;28;20032;-63
2021/12/04 15:03:58;;;;;;;3.58;1.58;;;-3.80;99.90;;;;;;5093002;28;20031;-64
2021/12/04 15:06:26;;;;;;;2.17;1.50;;;-3.90;99.90;;;;;;5096718;28;20040;-64
2021/12/04 15:09:00;;;;;;;2.15;1.60;;;-3.90;99.90;;;;;;5093015;28;20036;-64
2021/12/04 15:11:34;;;;;;;1.90;1.42;;;-3.90;99.90;;;;;;5095137;28;20476;-64
2021/12/04 15:14:14;;;;;;;6.50;1.50;;;-3.90;99.90;;;;;;5110301;28;20030;-64
2021/12/04 15:16:50;;;;;;;4.20;1.85;;;-3.90;99.90;;;;;;5113084;28;20031;-64
2021/12/04 15:19:52;;;;;;;4.70;1.60;;;-4.00;99.90;;;;;;5113091;28;20647;-64
2021/12/04 15:22:42;;;;;;;6.93;1.80;;;-4.00;99.90;;;;;;5112455;28;20043;-64
2021/12/04 15:25:15;;;;;;;3.58;1.88;;;-4.00;99.90;;;;;;5112766;28;20015;-64
2021/12/04 15:27:41;;;;;;;5.40;1.70;;;-4.00;99.90;;;;;;5095038;28;20032;-64
2021/12/04 15:30:14;;;;;;;8.85;1.88;;;-3.90;99.90;;;;;;5092229;28;20020;-64
2021/12/04 15:32:41;;;;;;;3.60;1.42;;;-4.00;99.90;;;;;;5092547;28;20020;-64
2021/12/04 15:38:04;;;;;;;2.33;1.63;;;-4.00;99.90;;;;;;5092707;28;20024;-64
2021/12/04 15:40:52;;;;;;;7.75;2.10;;;-3.90;99.90;;;;;;5092185;28;20476;-64
2021/12/04 15:43:33;;;;;;;4.90;2.20;;;-3.90;99.90;;;;;;5095344;28;20036;-64
2021/12/04 15:54:15;;;;;;;5.45;2.17;;;-4.00;99.90;;;;;;5092255;28;20028;-64
2021/12/04 15:56:45;;;;;;;4.18;1.90;;;-4.10;99.90;;;;;;5091945;28;20042;-64
2021/12/04 15:59:19;;;;;;;8.80;2.30;;;-4.10;99.90;;;;;;5091726;28;20492;-64
2021/12/04 16:01:47;;;;;;;4.68;2.40;;;-4.20;99.90;;;;;;5091887;28;20493;-64
2021/12/04 16:04:20;;;;;;;5.63;2.85;;;-4.20;99.90;;;;;;5091967;28;20040;-64
2021/12/04 16:06:46;;;;;;;5.90;2.70;;;-4.30;99.90;;;;;;5091940;28;20016;-64
2021/12/04 16:09:12;;;;;;;5.65;2.35;;;-4.40;99.90;;;;;;5091716;28;20044;-64
2021/12/04 16:11:41;;;;;;;5.22;2.40;;;-4.40;99.90;;;;;;5091867;28;20016;-64
2021/12/04 16:14:08;;;;;;;9.90;3.60;;;-4.50;99.90;;;;;;5091822;28;20372;-64
2021/12/04 16:16:39;;;;;;;5.20;2.58;;;-4.60;99.90;;;;;;5091649;28;20028;-64
2021/12/04 16:19:05;;;;;;;8.10;2.92;;;-4.60;99.90;;;;;;5091727;28;20027;-63
2021/12/04 16:21:34;;;;;;;6.05;3.10;;;-4.70;99.90;;;;;;5091816;28;20024;-65
2021/12/04 16:24:00;;;;;;;5.38;2.55;;;-4.80;99.90;;;;;;5091660;28;20078;-64
2021/12/04 16:26:29;;;;;;;8.18;2.78;;;-4.80;99.90;;;;;;5093002;28;20590;-65
2021/12/04 16:31:40;;;;;;;6.35;2.35;;;-5.00;99.90;;;;;;5091923;28;20507;-64
2021/12/04 16:39:33;;;;;;;3.78;2.40;;;-5.00;99.90;;;;;;5091737;28;20039;-64
2021/12/04 16:41:59;;;;;;;3.85;2.42;;;-5.10;99.90;;;;;;5091690;28;20108;-64
2021/12/04 16:44:26;;;;;;;4.10;2.08;;;-5.10;99.90;;;;;;5091593;28;20024;-64
2021/12/04 16:46:53;;;;;;;4.28;2.25;;;-5.20;99.90;;;;;;5094372;28;20023;-64
2021/12/04 16:49:19;;;;;;;5.15;2.40;;;-5.30;99.90;;;;;;5095969;28;20032;-62
2021/12/04 16:59:49;;;;;;;6.35;2.50;;;-5.60;99.90;;;;;;5095158;28;20040;-66
2021/12/04 17:02:17;;;;;;;3.63;2.70;;;-3.90;99.90;;;;;;5095074;28;20020;-66
2021/12/04 17:04:43;;;;;;;4.70;2.25;;;-3.20;99.90;;;;;;5095245;28;20051;-64
2021/12/04 17:07:09;;;;;;;6.00;3.00;;;-3.80;99.90;;;;;;5094905;28;20020;-65
2021/12/04 17:09:35;;;;;;;6.20;2.60;;;-4.30;99.90;;;;;;5112914;28;20031;-65